KTM weather

Tribhuvan International Airport
Kathmandu, Bagmati, Nepal

Public forecast

Using degrees Celsius for public forecast. Weather courtesy of forecast.io.

Current aviation weather report (METAR) for Tribhuvan International Airport

Retrieved 2020/04/09 11:20 UTC (27 minutes ago):

VNKT 091120Z 26008KT 8000 FEW020 SCT250 25/M04 Q1015 NOSIG

Aviation forecast (TAF) for Tribhuvan International Airport

Retrieved 2020/04/09 06:45 UTC (5 hours ago):

TAF VNKT 090500Z 0906/1006 12002KT 7000 FEW020 BECMG 0907/0909 29010KT 8000 FEW020 SCT025 BKN100 PROB30 0910/0912 22010G20KT 4000 -TSRA FEW025CB BKN100 BECMG 0914/0915 24004KT 6000 FEW015 SCT025 BECMG 1000/1002 12003KT 4000 HZ FEW010 SCT030 BECMG 1004/1005 09005KT 8000 FEW015 SCT030